Historique des mesures à Cassis (13260), France
Quotidien Résumé Avril 24, 2018 Unités:  Métrique    US   Métrique/US
« Précédent (Jour)
Suivant (Jour) »
Quotidien Hebdomadaire Mensuel Annuel Période au choix
  Maximum: Minimum: Moyenne:
Température: TemperatureC °C 16.8 °C 18.9 °C
Point de rosée: DewpointC °C 12.2 °C 13.6 °C
Humidité: Humidity % 64 % 68 %
Vitesse du vent: 0 km/h 0 km/h 3.5 km/h
Rafales: 0 km/h - -
Vent:- - SW
Pression: PressurehPa hPa 1012.4 hPa -
Précipitations: 0.0 mm    
Historical Graphs
 
 
Mesures pour : Avril 24, 2018
Heure Temperature Point de rosée Pression Vent Vitesse du vent Rafales Humidité Pluie (par heure) Conditions
TemperatureC °C DewpointC °C PressurehPa hPa Calm     Humidity % HourlyPrecipMM mm SoftwareType W/m2
00:10 18.4 °C 13.4 °C 1014.4 hPa Calm   2.3 km/h 73 % 0.0 mm open2300-1.11 W/m2
01:10 18.4 °C 13.7 °C 1013.8 hPa SW 3.4 km/h 3.4 km/h 74 % 0.0 mm open2300-1.11 W/m2
02:10 18.5 °C 13.8 °C 1013.4 hPa WNW 9.3 km/h 9.3 km/h 74 % 0.0 mm open2300-1.11 W/m2
03:10 18.6 °C 13.7 °C 1013.1 hPa North 4.2 km/h 4.2 km/h 73 % 0.0 mm open2300-1.11 W/m2
04:12 18.0 °C 13.5 °C 1012.8 hPa Calm   13.2 km/h 75 % 0.0 mm open2300-1.11 W/m2
05:12 17.5 °C 13.4 °C 1012.8 hPa Calm   5.6 km/h 77 % 0.0 mm open2300-1.11 W/m2
06:12 17.3 °C 12.8 °C 1012.4 hPa Calm     75 % 0.0 mm open2300-1.11 W/m2
07:12 17.1 °C 12.2 °C 1012.8 hPa NNW 7.6 km/h 15 km/h 73 % 0.0 mm open2300-1.11 W/m2
08:11 18.9 °C 13.3 °C 1013.1 hPa NNW 2.3 km/h 2.3 km/h 70 % 0.0 mm open2300-1.11 W/m2
09:11 19.5 °C 13.4 °C 1013.4 hPa Calm   4.2 km/h 68 % 0.0 mm open2300-1.11 W/m2
10:11 19.5 °C 13.7 °C 1014.4 hPa SSW 3.4 km/h 3.4 km/h 69 % 0.0 mm open2300-1.11 W/m2
11:11 22.3 °C 16.1 °C 1014.4 hPa SW 6.4 km/h 8 km/h 68 % 0.0 mm open2300-1.11 W/m2
12:11 21.6 °C 15.4 °C 1015.1 hPa West 5.6 km/h 5.6 km/h 68 % 0.0 mm open2300-1.11 W/m2
13:12 22.9 °C 15.9 °C 1015.1 hPa SSE 5.6 km/h 7.6 km/h 65 % 0.0 mm open2300-1.11 W/m2
14:11 23.1 °C 15.9 °C 1014.8 hPa SW 5.6 km/h 11.6 km/h 64 % 0.0 mm open2300-1.11 W/m2
15:10 22.9 °C 15.9 °C 1014.8 hPa ESE 12.2 km/h 12.2 km/h 65 % 0.0 mm open2300-1.11 W/m2
16:10 22.4 °C 15.5 °C 1014.1 hPa WSW 4.7 km/h 8.9 km/h 65 % 0.0 mm open2300-1.11 W/m2
17:10 21.9 °C 15.2 °C 1014.1 hPa SW 8.9 km/h 8.9 km/h 66 % 0.0 mm open2300-1.11 W/m2
18:10 21.6 °C 15.2 °C 1013.8 hPa WSW 8 km/h 8 km/h 67 % 0.0 mm open2300-1.11 W/m2
19:10 20.7 °C 14.6 °C 1013.4 hPa Calm     68 % 0.0 mm open2300-1.11 W/m2
20:10 19.8 °C 14.2 °C 1013.4 hPa Calm   4.2 km/h 70 % 0.0 mm open2300-1.11 W/m2
21:10 18.5 °C 13.6 °C 1013.8 hPa Calm     73 % 0.0 mm open2300-1.11 W/m2
22:10 17.3 °C 12.8 °C 1013.8 hPa Calm     75 % 0.0 mm open2300-1.11 W/m2
23:10 16.8 °C 12.5 °C 1014.1 hPa Calm   4.2 km/h 76 % 0.0 mm open2300-1.11 W/m2
Observations météo à CASSIS
WU-History script by Weather Underground - 1 mb